createdAt,value
2023-03-26T00:01:46.719Z,99647.28
2023-03-26T00:04:19.532Z,99654.47
2023-03-26T00:06:49.024Z,99652.44
2023-03-26T00:09:17.285Z,99655.56
2023-03-26T00:11:46.207Z,99656.41
2023-03-26T00:14:17.939Z,99660.56
2023-03-26T00:16:47.459Z,99648.31
2023-03-26T00:19:16.957Z,99656.38
2023-03-26T00:21:44.697Z,99653.25
2023-03-26T00:24:14.898Z,99660.28
2023-03-26T00:26:43.276Z,99661.47
2023-03-26T00:29:13.532Z,99667.78
2023-03-26T00:31:46.432Z,99670.97
2023-03-26T00:34:15.674Z,99656.44
2023-03-26T00:36:46.735Z,99659.66
2023-03-26T00:39:15.214Z,99665.53
2023-03-26T00:41:43.643Z,99658.44
2023-03-26T00:44:11.833Z,99648.66
2023-03-26T00:46:39.972Z,99650.13
2023-03-26T00:49:10.555Z,99661.69
2023-03-26T00:51:38.956Z,99655.84
2023-03-26T00:54:08.797Z,99666.31
2023-03-26T00:56:36.862Z,99670.59
2023-03-26T00:59:05.080Z,99659.19
2023-03-26T01:01:32.840Z,99668.34
2023-03-26T01:04:21.042Z,99664.31
2023-03-26T01:06:48.928Z,99667.97
2023-03-26T01:09:19.905Z,99660.13
2023-03-26T01:11:48.573Z,99664.06
2023-03-26T01:14:17.860Z,99671.41
2023-03-26T01:16:49.733Z,99663.94
2023-03-26T01:19:22.838Z,99657.41
2023-03-26T01:21:50.616Z,99665.56
2023-03-26T01:24:20.719Z,99676.59
2023-03-26T01:26:59.116Z,99688.31
2023-03-26T01:29:31.566Z,99683.72
2023-03-26T01:32:04.401Z,99684.38
2023-03-26T01:34:37.447Z,99682.13
2023-03-26T01:37:09.738Z,99680.75
2023-03-26T01:39:49.038Z,99676.22
2023-03-26T01:42:20.934Z,99684.06
2023-03-26T01:44:53.678Z,99682.16
2023-03-26T01:47:22.242Z,99685.84
2023-03-26T01:49:50.274Z,99670.03
2023-03-26T01:52:20.364Z,99703.63
2023-03-26T01:54:50.202Z,99685.44
2023-03-26T01:57:21.344Z,99680.41
2023-03-26T02:00:01.521Z,99681.72
2023-03-26T02:02:32.393Z,99684.84
2023-03-26T02:05:04.938Z,99681.50
2023-03-26T02:07:37.860Z,99689.56
2023-03-26T02:10:10.512Z,99689.56
2023-03-26T02:12:40.908Z,99695.16
2023-03-26T02:15:09.402Z,99688.13
2023-03-26T02:17:40.164Z,99684.84
2023-03-26T02:20:09.926Z,99680.41
2023-03-26T02:22:40.737Z,99687.69
2023-03-26T02:25:12.931Z,99699.09
2023-03-26T02:27:40.783Z,99696.13
2023-03-26T02:30:12.855Z,99691.59
2023-03-26T02:32:40.724Z,99683.97
2023-03-26T02:35:08.837Z,99687.44
2023-03-26T02:37:36.758Z,99691.72
2023-03-26T02:40:14.926Z,99687.44
2023-03-26T02:42:45.454Z,99685.06
2023-03-26T02:45:13.188Z,99695.41
2023-03-26T02:48:16.296Z,99694.44
2023-03-26T02:50:54.414Z,99697.91
2023-03-26T02:53:48.757Z,99694.69
2023-03-26T02:56:44.209Z,99703.03
2023-03-26T02:59:37.113Z,99698.50
2023-03-26T03:02:25.722Z,99702.44
2023-03-26T03:05:01.337Z,99707.91
2023-03-26T03:07:33.042Z,99711.69
2023-03-26T03:10:02.543Z,99710.41
2023-03-26T03:13:00.619Z,99720.63
2023-03-26T03:15:28.524Z,99715.16
2023-03-26T03:17:56.388Z,99721.72
2023-03-26T03:20:24.309Z,99713.38
2023-03-26T03:22:52.135Z,99714.78
2023-03-26T03:25:22.172Z,99711.47
2023-03-26T03:27:50.355Z,99723.97
2023-03-26T03:30:19.689Z,99714.31
2023-03-26T03:32:47.724Z,99717.06
2023-03-26T03:35:20.521Z,99711.94
2023-03-26T03:37:52.280Z,99718.72
2023-03-26T03:40:20.755Z,99726.19
2023-03-26T03:42:48.709Z,99726.91
2023-03-26T03:45:26.227Z,99726.19
2023-03-26T03:48:07.608Z,99723.81
2023-03-26T03:50:42.058Z,99721.59
2023-03-26T03:53:26.983Z,99736.31
2023-03-26T03:55:57.693Z,99732.41
2023-03-26T03:58:37.497Z,99728.94
2023-03-26T04:01:15.187Z,99723.22
2023-03-26T04:04:00.700Z,99725.75
2023-03-26T04:06:42.377Z,99728.34
2023-03-26T04:09:11.859Z,99730.97
2023-03-26T04:11:41.668Z,99725.75
2023-03-26T04:14:44.783Z,99736.09
2023-03-26T04:17:21.913Z,99739.06
2023-03-26T04:19:50.391Z,99743.22
2023-03-26T04:22:19.604Z,99735.97
2023-03-26T04:24:57.250Z,99740.25
2023-03-26T04:27:32.516Z,99738.81
2023-03-26T04:30:23.422Z,99735.25
2023-03-26T04:33:15.215Z,99737.03
2023-03-26T04:35:44.764Z,99740.38
2023-03-26T04:38:16.833Z,99740.88
2023-03-26T04:40:48.106Z,99732.88
2023-03-26T04:43:35.351Z,99742.88
2023-03-26T04:46:21.809Z,99729.91
2023-03-26T04:48:57.254Z,99740.88
2023-03-26T04:51:27.152Z,99739.28
2023-03-26T04:53:58.906Z,99739.19
2023-03-26T04:56:38.346Z,99737.88
2023-03-26T04:59:26.177Z,99741.34
2023-03-26T05:01:56.833Z,99742.88
2023-03-26T05:04:29.416Z,99743.81
2023-03-26T05:06:59.027Z,99738.09
2023-03-26T05:09:35.206Z,99739.78
2023-03-26T05:12:14.145Z,99747.28
2023-03-26T05:14:56.983Z,99750.97
2023-03-26T05:17:45.003Z,99742.53
2023-03-26T05:20:23.926Z,99747.53
2023-03-26T05:22:52.952Z,99742.16
2023-03-26T05:25:25.946Z,99743.44
2023-03-26T05:27:54.418Z,99739.44
2023-03-26T05:30:25.915Z,99742.16
2023-03-26T05:32:58.418Z,99736.81
2023-03-26T05:35:32.316Z,99734.31
2023-03-26T05:38:00.048Z,99742.38
2023-03-26T05:40:28.104Z,99759.91
2023-03-26T05:43:01.324Z,99749.06
2023-03-26T05:45:37.970Z,99747.88
2023-03-26T05:48:24.879Z,99750.84
2023-03-26T05:50:55.502Z,99748.09
2023-03-26T05:53:23.989Z,99757.38
2023-03-26T05:56:10.595Z,99754.06
2023-03-26T05:58:57.781Z,99753.59
2023-03-26T06:01:54.598Z,99760.72
2023-03-26T06:04:48.040Z,99755.72
2023-03-26T06:07:33.877Z,99765.34
2023-03-26T06:10:11.781Z,99756.19
2023-03-26T06:12:46.100Z,99755.47
2023-03-26T06:15:14.133Z,99757.28
2023-03-26T06:17:48.161Z,99754.91
2023-03-26T06:20:42.212Z,99766.31
2023-03-26T06:23:22.755Z,99775.47
2023-03-26T06:26:06.510Z,99768.81
2023-03-26T06:28:52.580Z,99768.81
2023-03-26T06:31:43.156Z,99772.84
2023-03-26T06:34:22.907Z,99770.13
2023-03-26T06:36:52.675Z,99773.69
2023-03-26T06:39:23.189Z,99775.72
2023-03-26T06:42:11.403Z,99772.50
2023-03-26T06:44:57.673Z,99775.72
2023-03-26T06:47:44.265Z,99780.59
2023-03-26T06:50:43.841Z,99774.78
2023-03-26T06:53:18.409Z,99790.72
2023-03-26T06:56:07.863Z,99785.69
2023-03-26T06:58:57.210Z,99791.19
2023-03-26T07:01:44.146Z,99786.91
2023-03-26T07:04:31.414Z,99780.72
2023-03-26T07:07:20.296Z,99770.69
2023-03-26T07:10:23.277Z,99772.03
2023-03-26T07:13:05.359Z,99787.63
2023-03-26T07:16:02.613Z,99781.06
2023-03-26T07:18:38.586Z,99783.81
2023-03-26T07:21:09.649Z,99781.31
2023-03-26T07:23:37.568Z,99793.78
2023-03-26T07:26:26.930Z,99767.38
2023-03-26T07:29:29.032Z,99771.78
2023-03-26T07:32:19.130Z,99774.63
2023-03-26T07:34:56.724Z,99769.75
2023-03-26T07:37:31.608Z,99767.34
2023-03-26T07:40:21.251Z,99776.28
2023-03-26T07:43:30.445Z,99784.84
2023-03-26T07:46:29.774Z,99782.94
2023-03-26T07:49:32.502Z,99777.34
2023-03-26T07:52:08.202Z,99781.88
2023-03-26T07:54:55.327Z,99779.72
2023-03-26T07:57:37.504Z,99783.44
2023-03-26T08:00:29.745Z,99781.94
2023-03-26T08:03:17.798Z,99783.72
2023-03-26T08:05:54.087Z,99785.19
2023-03-26T08:08:34.591Z,99776.47
2023-03-26T08:11:30.919Z,99788.63
2023-03-26T08:14:03.955Z,99777.00
2023-03-26T08:16:37.424Z,99778.72
2023-03-26T08:19:11.413Z,99776.38
2023-03-26T08:21:42.730Z,99778.78
2023-03-26T08:24:14.357Z,99776.28
2023-03-26T08:26:45.787Z,99775.44
2023-03-26T08:29:19.033Z,99780.75
2023-03-26T08:31:48.930Z,99779.28
2023-03-26T08:34:17.972Z,99775.31
2023-03-26T08:36:45.979Z,99773.13
2023-03-26T08:39:14.178Z,99773.75
2023-03-26T08:42:00.753Z,99769.19
2023-03-26T08:44:47.537Z,99766.78
2023-03-26T08:47:33.290Z,99765.75
2023-03-26T08:50:15.998Z,99780.47
2023-03-26T08:53:08.470Z,99766.06
2023-03-26T08:55:44.868Z,99761.22
2023-03-26T08:58:36.677Z,99762.41
2023-03-26T09:01:22.303Z,99753.03
2023-03-26T09:04:00.814Z,99752.53
2023-03-26T09:06:38.528Z,99751.78
2023-03-26T09:09:27.460Z,99756.22
2023-03-26T09:12:28.518Z,99753.44
2023-03-26T09:15:20.296Z,99745.81
2023-03-26T09:18:14.904Z,99750.66
2023-03-26T09:21:09.654Z,99751.75
2023-03-26T09:23:53.705Z,99741.22
2023-03-26T09:26:26.242Z,99738.19
2023-03-26T09:29:13.643Z,99732.66
2023-03-26T09:31:59.455Z,99730.78
2023-03-26T09:34:31.801Z,99734.81
2023-03-26T09:37:15.027Z,99735.66
2023-03-26T09:39:51.517Z,99729.91
2023-03-26T09:42:24.699Z,99735.31
2023-03-26T09:45:06.296Z,99737.84
2023-03-26T09:47:53.046Z,99748.50
2023-03-26T09:50:29.751Z,99748.31
2023-03-26T09:53:05.138Z,99758.69
2023-03-26T09:55:57.764Z,99767.13
2023-03-26T09:58:42.551Z,99752.59
2023-03-26T10:01:15.560Z,99764.72
2023-03-26T10:03:58.843Z,99765.09
2023-03-26T10:06:36.507Z,99763.06
2023-03-26T10:09:12.356Z,99775.44
2023-03-26T10:11:57.419Z,99767.47
2023-03-26T10:14:27.961Z,99771.19
2023-03-26T10:17:03.044Z,99766.28
2023-03-26T10:19:36.906Z,99760.81
2023-03-26T10:22:12.328Z,99763.25
2023-03-26T10:24:57.296Z,99756.69
2023-03-26T10:27:32.705Z,99756.34
2023-03-26T10:30:19.160Z,99758.47
2023-03-26T10:32:52.289Z,99750.00
2023-03-26T10:35:37.065Z,99752.63
2023-03-26T10:38:16.451Z,99755.22
2023-03-26T10:40:49.265Z,99754.28
2023-03-26T10:43:38.226Z,99746.06
2023-03-26T10:46:19.363Z,99749.78
2023-03-26T10:49:17.122Z,99752.50
2023-03-26T10:51:51.106Z,99757.97
2023-03-26T10:54:26.767Z,99752.94
2023-03-26T10:56:56.574Z,99758.31
2023-03-26T10:59:27.321Z,99756.38
2023-03-26T11:02:03.132Z,99755.84
2023-03-26T11:04:36.421Z,99764.59
2023-03-26T11:07:10.806Z,99753.38
2023-03-26T11:09:41.856Z,99748.03
2023-03-26T11:12:26.210Z,99753.44
2023-03-26T11:15:02.652Z,99752.50
2023-03-26T11:17:39.425Z,99750.31
2023-03-26T11:20:11.664Z,99749.31
2023-03-26T11:22:47.943Z,99741.78
2023-03-26T11:25:26.458Z,99736.25
2023-03-26T11:28:05.011Z,99739.81
2023-03-26T11:30:41.292Z,99732.81
2023-03-26T11:33:11.250Z,99736.16
2023-03-26T11:35:41.973Z,99734.31
2023-03-26T11:38:17.268Z,99731.81
2023-03-26T11:40:50.526Z,99732.34
2023-03-26T11:43:30.630Z,99735.63
2023-03-26T11:46:00.934Z,99732.75
2023-03-26T11:48:31.958Z,99721.91
2023-03-26T11:51:01.759Z,99731.31
2023-03-26T11:53:30.713Z,99725.03
2023-03-26T11:56:00.929Z,99723.38
2023-03-26T11:58:32.055Z,99723.72
2023-03-26T12:01:04.158Z,99722.03
2023-03-26T12:04:40.467Z,99719.09
2023-03-26T12:07:16.900Z,99720.50
2023-03-26T12:09:52.082Z,99719.25
2023-03-26T12:12:20.957Z,99709.84
2023-03-26T12:14:49.453Z,99706.56
2023-03-26T12:17:31.467Z,99694.78
2023-03-26T12:20:02.042Z,99694.53
2023-03-26T12:22:36.126Z,99698.28
2023-03-26T12:25:16.560Z,99685.53
2023-03-26T12:27:46.112Z,99689.00
2023-03-26T12:30:22.996Z,99686.53
2023-03-26T12:32:53.467Z,99686.78
2023-03-26T12:35:27.745Z,99678.78
2023-03-26T12:37:57.949Z,99672.53
2023-03-26T12:40:32.623Z,99665.00
2023-03-26T12:44:46.165Z,99671.25
2023-03-26T12:46:03.751Z,99669.09
2023-03-26T12:48:43.765Z,99676.06
2023-03-26T12:51:22.070Z,99668.72
2023-03-26T12:54:01.935Z,99664.34
2023-03-26T12:56:38.525Z,99676.34
2023-03-26T12:59:32.571Z,99681.63
2023-03-26T13:02:20.011Z,99677.94
2023-03-26T13:05:06.165Z,99682.72
2023-03-26T13:07:57.912Z,99674.41
2023-03-26T13:10:48.094Z,99668.31
2023-03-26T13:13:42.304Z,99665.50
2023-03-26T13:16:18.572Z,99665.59
2023-03-26T13:18:54.396Z,99672.28
2023-03-26T13:21:35.146Z,99671.00
2023-03-26T13:24:14.868Z,99666.72
2023-03-26T13:27:00.597Z,99657.44
2023-03-26T13:29:38.502Z,99664.69
2023-03-26T13:32:12.500Z,99665.59
2023-03-26T13:35:05.158Z,99664.69
2023-03-26T13:37:40.630Z,99658.28
2023-03-26T13:40:24.814Z,99658.63
2023-03-26T13:43:18.011Z,99656.56
2023-03-26T13:45:57.015Z,99649.66
2023-03-26T13:48:29.139Z,99646.53
2023-03-26T13:51:04.838Z,99655.41
2023-03-26T13:53:41.917Z,99649.69
2023-03-26T13:56:16.720Z,99649.03
2023-03-26T13:58:51.489Z,99656.41
2023-03-26T14:01:22.358Z,99655.78
2023-03-26T14:04:01.245Z,99652.75
2023-03-26T14:06:36.720Z,99649.63
2023-03-26T14:09:11.478Z,99646.97
2023-03-26T14:12:21.627Z,99647.38
2023-03-26T14:14:56.328Z,99651.34
2023-03-26T14:17:34.332Z,99644.16
2023-03-26T14:20:39.947Z,99644.09
2023-03-26T14:23:26.929Z,99641.19
2023-03-26T14:26:08.396Z,99643.00
2023-03-26T14:29:12.489Z,99639.94
2023-03-26T14:31:51.015Z,99634.13
2023-03-26T14:35:01.051Z,99634.66
2023-03-26T14:37:53.403Z,99633.81
2023-03-26T14:40:40.774Z,99636.34
2023-03-26T14:43:43.999Z,99639.41
2023-03-26T14:46:27.038Z,99624.13
2023-03-26T14:49:08.921Z,99634.66
2023-03-26T14:51:57.946Z,99623.50
2023-03-26T14:54:32.190Z,99618.75
2023-03-26T14:57:28.970Z,99631.88
2023-03-26T15:00:34.887Z,99632.09
2023-03-26T15:03:39.490Z,99617.38
2023-03-26T15:07:00.739Z,99617.75
2023-03-26T15:10:14.310Z,99622.66
2023-03-26T15:12:55.793Z,99624.13
2023-03-26T15:16:09.177Z,99612.19
2023-03-26T15:19:33.775Z,99605.59
2023-03-26T15:22:43.070Z,99619.97
2023-03-26T15:25:56.973Z,99611.63
2023-03-26T15:29:04.508Z,99611.91
2023-03-26T15:32:07.324Z,99613.00
2023-03-26T15:35:09.712Z,99614.78
2023-03-26T15:38:21.956Z,99611.72
2023-03-26T15:41:05.054Z,99609.56
2023-03-26T15:44:24.317Z,99621.19
2023-03-26T15:47:21.150Z,99609.63
2023-03-26T15:49:54.987Z,99611.44
2023-03-26T15:52:28.811Z,99616.78
2023-03-26T15:55:05.168Z,99611.25
2023-03-26T15:57:40.979Z,99621.97
2023-03-26T16:00:23.133Z,99620.84
2023-03-26T16:03:19.335Z,99614.22
2023-03-26T16:06:10.982Z,99616.97
2023-03-26T16:08:47.097Z,99615.91
2023-03-26T16:11:15.569Z,99615.69
2023-03-26T16:14:09.456Z,99615.63
2023-03-26T16:16:58.585Z,99615.66
2023-03-26T16:19:51.844Z,99619.66
2023-03-26T16:22:43.752Z,99614.28
2023-03-26T16:25:31.515Z,99625.38
2023-03-26T16:28:23.353Z,99616.09
2023-03-26T16:31:36.867Z,99619.94
2023-03-26T16:34:28.608Z,99623.97
2023-03-26T16:37:00.541Z,99618.19
2023-03-26T16:39:43.600Z,99621.66
2023-03-26T16:42:42.828Z,99624.09
2023-03-26T16:45:23.909Z,99628.69
2023-03-26T16:48:01.629Z,99629.50
2023-03-26T16:50:42.316Z,99640.03
2023-03-26T16:53:24.206Z,99637.13
2023-03-26T16:55:58.508Z,99630.75
2023-03-26T16:58:34.529Z,99647.22
2023-03-26T17:01:09.912Z,99642.38
2023-03-26T17:03:52.160Z,99639.63
2023-03-26T17:06:27.947Z,99638.34
2023-03-26T17:09:02.617Z,99640.56
2023-03-26T17:11:43.341Z,99650.13
2023-03-26T17:14:23.133Z,99641.13
2023-03-26T17:17:07.960Z,99647.44
2023-03-26T17:19:42.673Z,99645.03
2023-03-26T17:22:20.532Z,99650.53
2023-03-26T17:25:04.423Z,99645.59
2023-03-26T17:27:49.973Z,99646.59
2023-03-26T17:30:55.278Z,99656.97
2023-03-26T17:33:30.865Z,99655.56
2023-03-26T17:36:40.842Z,99661.59
2023-03-26T17:40:12.128Z,99667.41
2023-03-26T17:42:40.318Z,99664.88
2023-03-26T17:45:13.659Z,99670.81
2023-03-26T17:47:46.428Z,99673.97
2023-03-26T17:50:17.441Z,99662.94
2023-03-26T17:52:56.707Z,99674.09
2023-03-26T17:55:30.943Z,99674.78
2023-03-26T17:57:59.972Z,99673.41
2023-03-26T18:00:32.199Z,99681.16
2023-03-26T18:03:03.838Z,99682.22
2023-03-26T18:05:32.271Z,99678.59
2023-03-26T18:08:21.741Z,99677.13
2023-03-26T18:11:08.901Z,99678.50
2023-03-26T18:14:02.679Z,99685.19
2023-03-26T18:16:38.605Z,99680.91
2023-03-26T18:19:18.836Z,99687.53
2023-03-26T18:21:50.117Z,99689.13
2023-03-26T18:24:24.371Z,99688.00
2023-03-26T18:26:58.292Z,99685.94
2023-03-26T18:29:28.795Z,99681.00
2023-03-26T18:32:00.200Z,99679.59
2023-03-26T18:34:31.807Z,99684.03
2023-03-26T18:37:24.940Z,99692.00
2023-03-26T18:40:02.467Z,99689.66
2023-03-26T18:42:46.616Z,99685.75
2023-03-26T18:45:25.677Z,99686.66
2023-03-26T18:47:57.206Z,99691.09
2023-03-26T18:50:28.370Z,99697.53
2023-03-26T18:53:00.450Z,99702.78
2023-03-26T18:55:33.600Z,99700.06
2023-03-26T18:58:12.474Z,99707.78
2023-03-26T19:00:41.689Z,99698.38
2023-03-26T19:03:11.835Z,99701.00
2023-03-26T19:05:40.205Z,99702.03
2023-03-26T19:08:08.756Z,99709.31
2023-03-26T19:10:38.692Z,99704.09
2023-03-26T19:13:06.682Z,99704.13
2023-03-26T19:15:36.038Z,99702.72
2023-03-26T19:18:09.816Z,99707.03
2023-03-26T19:20:43.111Z,99701.91
2023-03-26T19:23:15.263Z,99705.84
2023-03-26T19:25:48.482Z,99706.47
2023-03-26T19:28:29.064Z,99707.97
2023-03-26T19:30:59.643Z,99709.69
2023-03-26T19:33:36.893Z,99707.50
2023-03-26T19:36:16.050Z,99705.16
2023-03-26T19:38:45.806Z,99707.88
2023-03-26T19:41:21.556Z,99714.69
2023-03-26T19:43:51.374Z,99711.47
2023-03-26T19:46:22.436Z,99715.13
2023-03-26T19:48:54.297Z,99714.44
2023-03-26T19:51:25.617Z,99719.31
2023-03-26T19:53:55.618Z,99721.69
2023-03-26T19:56:25.470Z,99717.28
2023-03-26T19:58:54.434Z,99728.47
2023-03-26T20:01:25.039Z,99728.13
2023-03-26T20:03:55.873Z,99727.75
2023-03-26T20:06:34.028Z,99728.72
2023-03-26T20:09:11.064Z,99737.50
2023-03-26T20:11:40.835Z,99733.72
2023-03-26T20:14:14.241Z,99733.13
2023-03-26T20:16:44.962Z,99741.75
2023-03-26T20:22:02.220Z,99753.31
2023-03-26T20:24:30.974Z,99745.94
2023-03-26T20:27:00.324Z,99753.13
2023-03-26T20:29:29.311Z,99755.16
2023-03-26T20:31:57.708Z,99763.59
2023-03-26T20:34:26.050Z,99771.94
2023-03-26T20:36:55.831Z,99774.44
2023-03-26T20:39:24.685Z,99769.53
2023-03-26T20:41:54.501Z,99768.84
2023-03-26T20:44:26.636Z,99773.06
2023-03-26T20:46:56.390Z,99771.06
2023-03-26T20:49:24.965Z,99778.06
2023-03-26T20:51:53.165Z,99778.97
2023-03-26T20:54:23.993Z,99777.22
2023-03-26T20:56:53.344Z,99775.53
2023-03-26T20:59:26.285Z,99782.78
2023-03-26T21:01:56.484Z,99778.97
2023-03-26T21:04:26.202Z,99787.38
2023-03-26T21:07:00.289Z,99786.97
2023-03-26T21:09:34.433Z,99792.06
2023-03-26T21:12:06.439Z,99799.19
2023-03-26T21:14:40.461Z,99790.34
2023-03-26T21:17:14.682Z,99793.94
2023-03-26T21:19:43.678Z,99802.44
2023-03-26T21:22:25.766Z,99803.06
2023-03-26T21:25:05.377Z,99805.91
2023-03-26T21:27:43.426Z,99806.63
2023-03-26T21:30:16.178Z,99809.25
2023-03-26T21:32:46.034Z,99805.41
2023-03-26T21:35:16.185Z,99812.19
2023-03-26T21:37:46.844Z,99816.47
2023-03-26T21:40:16.962Z,99810.94
2023-03-26T21:42:47.113Z,99815.50
2023-03-26T21:45:18.062Z,99815.00
2023-03-26T21:47:46.940Z,99818.88
2023-03-26T21:50:17.361Z,99817.00
2023-03-26T21:52:50.762Z,99812.72
2023-03-26T21:55:20.288Z,99815.75
2023-03-26T21:58:07.258Z,99819.72
2023-03-26T22:00:43.776Z,99820.16
2023-03-26T22:03:20.965Z,99824.13
2023-03-26T22:05:55.794Z,99822.94
2023-03-26T22:08:30.578Z,99822.13
2023-03-26T22:10:58.778Z,99828.72
2023-03-26T22:13:27.216Z,99827.47
2023-03-26T22:15:56.733Z,99830.88
2023-03-26T22:18:26.055Z,99838.53
2023-03-26T22:20:54.515Z,99835.16
2023-03-26T22:23:22.722Z,99831.47
2023-03-26T22:25:50.649Z,99826.81
2023-03-26T22:28:19.194Z,99840.34
2023-03-26T22:30:47.301Z,99841.59
2023-03-26T22:33:17.834Z,99835.94
2023-03-26T22:35:46.127Z,99836.56
2023-03-26T22:38:14.966Z,99841.19
2023-03-26T22:40:42.895Z,99850.53
2023-03-26T22:43:11.480Z,99834.66
2023-03-26T22:45:39.460Z,99846.50
2023-03-26T22:48:07.793Z,99847.13
2023-03-26T22:50:37.194Z,99850.53
2023-03-26T22:53:05.235Z,99850.25
2023-03-26T22:55:33.568Z,99863.56
2023-03-26T22:58:01.669Z,99853.09
2023-03-26T23:00:30.622Z,99854.94
2023-03-26T23:03:00.393Z,99855.97
2023-03-26T23:05:29.381Z,99857.91
2023-03-26T23:07:58.893Z,99862.94
2023-03-26T23:10:29.961Z,99867.91
2023-03-26T23:12:57.859Z,99866.00
2023-03-26T23:15:25.849Z,99868.19
2023-03-26T23:17:54.540Z,99870.09
2023-03-26T23:20:23.330Z,99873.47
2023-03-26T23:22:52.299Z,99875.25
2023-03-26T23:25:21.708Z,99882.81
2023-03-26T23:27:50.466Z,99897.13
2023-03-26T23:30:19.080Z,99904.75
2023-03-26T23:32:49.930Z,99896.25
2023-03-26T23:35:18.278Z,99901.56
2023-03-26T23:37:46.402Z,99907.16
2023-03-26T23:40:14.739Z,99912.66
2023-03-26T23:42:44.121Z,99917.50
2023-03-26T23:45:13.280Z,99916.00
2023-03-26T23:47:42.131Z,99921.31
2023-03-26T23:50:11.497Z,99921.03
2023-03-26T23:52:39.747Z,99925.75
2023-03-26T23:55:08.295Z,99935.72
2023-03-26T23:57:37.026Z,99944.75
